createdAt,value
2018-04-07T00:23:57.949Z,6.33
2018-04-07T00:26:26.448Z,6.10
2018-04-07T00:28:54.983Z,7.57
2018-04-07T00:31:23.136Z,8.27
2018-04-07T00:33:51.404Z,6.37
2018-04-07T00:36:19.237Z,5.70
2018-04-07T00:38:47.631Z,6.10
2018-04-07T00:41:16.348Z,6.80
2018-04-07T00:43:45.134Z,6.70
2018-04-07T00:46:13.132Z,5.87
2018-04-07T00:48:41.092Z,5.43
2018-04-07T00:51:08.940Z,5.70
2018-04-07T00:53:36.710Z,5.77
2018-04-07T00:56:04.309Z,6.10
2018-04-07T00:58:32.228Z,6.07
2018-04-07T01:01:00.635Z,6.13
2018-04-07T01:03:28.514Z,6.97
2018-04-07T01:05:55.984Z,7.18
2018-04-07T01:08:23.600Z,6.63
2018-04-07T01:10:51.460Z,5.37
2018-04-07T01:13:19.263Z,5.65
2018-04-07T01:15:50.782Z,5.90
2018-04-07T01:18:18.386Z,6.60
2018-04-07T01:20:47.232Z,6.60
2018-04-07T01:23:15.113Z,6.20
2018-04-07T01:25:43.556Z,6.90
2018-04-07T01:28:11.038Z,7.10
2018-04-07T01:30:39.332Z,6.20
2018-04-07T01:33:07.413Z,6.90
2018-04-07T01:35:35.183Z,6.87
2018-04-07T01:38:03.145Z,6.97
2018-04-07T01:40:31.127Z,7.70
2018-04-07T01:42:58.878Z,5.85
2018-04-07T01:45:27.600Z,5.00
2018-04-07T01:47:55.211Z,4.73
2018-04-07T01:50:23.628Z,6.12
2018-04-07T01:52:52.429Z,5.43
2018-04-07T01:55:20.080Z,6.60
2018-04-07T01:57:48.281Z,6.90
2018-04-07T02:00:15.975Z,5.30
2018-04-07T02:02:43.923Z,6.13
2018-04-07T02:05:12.902Z,6.57
2018-04-07T02:07:41.401Z,6.80
2018-04-07T02:10:09.157Z,7.10
2018-04-07T02:12:37.029Z,6.67
2018-04-07T02:15:05.858Z,5.28
2018-04-07T02:17:34.539Z,6.75
2018-04-07T02:20:02.434Z,6.94
2018-04-07T02:22:30.378Z,6.20
2018-04-07T02:24:58.134Z,7.50
2018-04-07T02:27:26.124Z,8.07
2018-04-07T02:29:53.897Z,8.30
2018-04-07T02:58:22.203Z,8.20
2018-04-07T03:00:50.496Z,7.77
2018-04-07T03:03:18.301Z,6.22
2018-04-07T03:05:45.922Z,5.20
2018-04-07T03:08:14.357Z,3.97
2018-04-07T03:10:43.096Z,5.27
2018-04-07T03:13:11.402Z,4.07
2018-04-07T03:15:39.033Z,4.40
2018-04-07T03:18:06.910Z,4.03
2018-04-07T03:20:34.668Z,5.30
2018-04-07T03:23:02.283Z,4.15
2018-04-07T03:25:30.647Z,4.30
2018-04-07T03:27:58.295Z,3.67
2018-04-07T03:30:26.950Z,3.97
2018-04-07T03:32:55.811Z,4.10
2018-04-07T03:35:23.609Z,3.70
2018-04-07T03:37:51.286Z,4.07
2018-04-07T03:40:19.069Z,3.70
2018-04-07T03:42:47.899Z,3.62
2018-04-07T04:08:01.469Z,3.77
2018-04-07T04:10:29.364Z,4.50
2018-04-07T04:12:57.264Z,3.40
2018-04-07T04:15:25.626Z,3.70
2018-04-07T04:17:54.479Z,3.40
2018-04-07T04:20:22.608Z,3.87
2018-04-07T04:22:50.591Z,3.67
2018-04-07T04:25:18.543Z,4.27
2018-04-07T04:27:46.321Z,3.20
2018-04-07T04:30:13.941Z,3.90
2018-04-07T04:32:41.586Z,3.57
2018-04-07T04:35:09.461Z,4.00
2018-04-07T04:37:37.752Z,3.83
2018-04-07T04:40:05.861Z,3.47
2018-04-07T04:42:34.123Z,3.30
2018-04-07T04:45:02.005Z,4.17
2018-04-07T04:47:30.269Z,4.37
2018-04-07T04:49:58.170Z,3.57
2018-04-07T04:52:26.919Z,3.47
2018-04-07T05:21:00.350Z,6.43
2018-04-07T05:23:28.013Z,5.30
2018-04-07T05:25:55.602Z,6.30
2018-04-07T05:28:23.987Z,5.90
2018-04-07T05:30:52.549Z,6.50
2018-04-07T05:33:20.286Z,5.80
2018-04-07T05:35:48.214Z,6.07
2018-04-07T05:38:16.976Z,6.10
2018-04-07T05:40:45.230Z,5.30
2018-04-07T05:43:13.058Z,6.13
2018-04-07T05:45:40.864Z,6.00
2018-04-07T05:48:08.407Z,7.03
2018-04-07T05:50:36.150Z,6.90
2018-04-07T05:53:06.040Z,7.25
2018-04-07T05:55:34.125Z,6.70
2018-04-07T05:58:01.656Z,7.30
2018-04-07T06:00:29.190Z,6.07
2018-04-07T06:02:56.989Z,6.60
2018-04-07T06:05:24.787Z,6.90
2018-04-07T06:07:52.333Z,7.10
2018-04-07T06:10:20.182Z,7.77
2018-04-07T06:12:47.885Z,6.97
2018-04-07T06:15:15.828Z,7.17
2018-04-07T06:17:44.382Z,7.20
2018-04-07T06:20:12.596Z,6.73
2018-04-07T06:22:40.812Z,6.50
2018-04-07T06:25:08.718Z,7.03
2018-04-07T06:27:37.287Z,7.00
2018-04-07T06:30:05.516Z,7.90
2018-04-07T06:32:33.493Z,7.85
2018-04-07T06:35:01.284Z,7.60
2018-04-07T06:37:29.404Z,7.73
2018-04-07T06:39:57.400Z,7.10
2018-04-07T06:42:25.966Z,8.20
2018-04-07T06:44:54.899Z,7.60
2018-04-07T06:47:23.568Z,7.77
2018-04-07T06:49:52.362Z,7.50
2018-04-07T06:52:20.878Z,8.37
2018-04-07T06:54:48.408Z,7.30
2018-04-07T06:57:16.363Z,7.43
2018-04-07T06:59:43.957Z,6.93
2018-04-07T07:02:11.741Z,7.90
2018-04-07T07:04:39.982Z,7.80
2018-04-07T07:07:08.777Z,6.80
2018-04-07T07:09:37.213Z,8.37
2018-04-07T07:12:04.809Z,7.95
2018-04-07T07:14:32.480Z,6.80
2018-04-07T07:17:00.874Z,7.93
2018-04-07T07:19:30.346Z,7.37
2018-04-07T07:21:58.937Z,8.97
2018-04-07T07:24:26.577Z,7.70
2018-04-07T07:26:54.139Z,7.67
2018-04-07T07:29:21.867Z,7.90
2018-04-07T07:54:40.023Z,7.47
2018-04-07T08:19:53.714Z,8.13
2018-04-07T08:22:21.662Z,7.53
2018-04-07T08:24:50.247Z,8.40
2018-04-07T08:27:18.051Z,7.50
2018-04-07T08:29:45.814Z,9.20
2018-04-07T08:55:03.872Z,8.10
2018-04-07T08:57:31.775Z,7.87
2018-04-07T08:59:59.463Z,9.00
2018-04-07T09:02:29.830Z,8.50
2018-04-07T09:27:48.835Z,8.33
2018-04-07T09:30:17.259Z,8.10
2018-04-07T09:32:44.962Z,9.43
2018-04-07T09:35:12.553Z,10.07
2018-04-07T09:37:40.346Z,9.03
2018-04-07T09:40:08.066Z,9.02
2018-04-07T09:42:37.300Z,9.00
2018-04-07T09:45:05.046Z,9.83
2018-04-07T09:47:32.757Z,9.80
2018-04-07T09:50:01.205Z,9.65
2018-04-07T09:52:29.087Z,8.83
2018-04-07T09:54:57.084Z,9.60
2018-04-07T09:57:24.928Z,9.50
2018-04-07T09:59:52.803Z,9.60
2018-04-07T10:02:20.365Z,9.80
2018-04-07T10:04:48.024Z,11.10
2018-04-07T10:07:15.921Z,10.47
2018-04-07T10:09:43.835Z,9.70
2018-04-07T10:12:11.773Z,11.20
2018-04-07T10:14:39.525Z,9.73
2018-04-07T10:17:09.285Z,8.47
2018-04-07T10:19:36.981Z,10.75
2018-04-07T10:22:06.161Z,9.33
2018-04-07T10:24:34.115Z,10.17
2018-04-07T10:27:01.854Z,9.80
2018-04-07T10:29:29.704Z,10.17
2018-04-07T10:31:57.280Z,10.40
2018-04-07T10:34:24.943Z,10.17
2018-04-07T10:36:52.537Z,9.73
2018-04-07T10:39:20.196Z,10.50
2018-04-07T10:41:49.613Z,10.00
2018-04-07T10:44:18.154Z,11.07
2018-04-07T10:46:45.982Z,10.00
2018-04-07T10:49:13.882Z,10.07
2018-04-07T11:14:27.544Z,10.63
2018-04-07T11:16:56.420Z,10.30
2018-04-07T11:19:24.266Z,10.90
2018-04-07T11:21:52.102Z,9.73
2018-04-07T11:24:19.843Z,10.90
2018-04-07T11:26:48.539Z,10.67
2018-04-07T11:29:16.291Z,10.20
2018-04-07T11:31:46.074Z,11.50
2018-04-07T11:34:13.721Z,11.13
2018-04-07T11:52:56.792Z,20.07
2018-04-07T11:55:24.436Z,20.53
2018-04-07T11:57:52.144Z,25.97
2018-04-07T12:00:20.077Z,31.77
2018-04-07T12:02:48.421Z,40.07
2018-04-07T12:05:16.200Z,49.33
2018-04-07T12:07:43.981Z,65.37
2018-04-07T12:10:11.918Z,58.10
2018-04-07T12:12:40.329Z,62.07
2018-04-07T12:15:07.973Z,59.80
2018-04-07T12:17:35.655Z,55.50
2018-04-07T12:20:04.437Z,58.50
2018-04-07T12:22:32.084Z,57.47
2018-04-07T12:25:00.609Z,54.37
2018-04-07T12:27:28.913Z,55.37
2018-04-07T12:29:56.605Z,53.17
2018-04-07T12:32:25.004Z,53.10
2018-04-07T12:34:53.338Z,52.97
2018-04-07T12:37:21.019Z,50.40
2018-04-07T12:39:48.438Z,54.90
2018-04-07T12:42:16.049Z,52.27
2018-04-07T12:44:44.433Z,48.07
2018-04-07T12:47:12.199Z,50.60
2018-04-07T12:49:40.686Z,48.70
2018-04-07T12:52:08.726Z,45.60
2018-04-07T12:54:37.116Z,47.03
2018-04-07T12:57:04.629Z,45.27
2018-04-07T12:59:32.487Z,41.40
2018-04-07T13:02:01.164Z,39.60
2018-04-07T13:04:30.173Z,34.43
2018-04-07T13:06:58.062Z,36.90
2018-04-07T13:09:25.819Z,34.80
2018-04-07T13:11:53.536Z,35.77
2018-04-07T13:14:21.508Z,37.45
2018-04-07T13:16:49.587Z,37.05
2018-04-07T13:19:17.161Z,36.13
2018-04-07T13:21:44.718Z,37.27
2018-04-07T13:24:13.516Z,52.80
2018-04-07T13:26:42.485Z,40.77
2018-04-07T13:29:10.798Z,37.47
2018-04-07T13:31:38.671Z,40.47
2018-04-07T13:34:06.423Z,38.40
2018-04-07T13:36:34.887Z,39.77
2018-04-07T13:39:02.675Z,34.67
2018-04-07T13:41:30.464Z,28.90
2018-04-07T13:43:58.074Z,29.43
2018-04-07T13:46:25.750Z,25.87
2018-04-07T14:05:08.421Z,18.87
2018-04-07T14:07:38.200Z,19.60
2018-04-07T14:10:06.755Z,19.27
2018-04-07T14:12:34.951Z,24.73
2018-04-07T14:15:02.732Z,27.87
2018-04-07T14:17:30.466Z,24.92
2018-04-07T14:19:58.514Z,25.20
2018-04-07T14:22:27.257Z,25.53
2018-04-07T14:24:55.362Z,25.70
2018-04-07T14:27:23.171Z,23.07
2018-04-07T14:29:50.976Z,23.77
2018-04-07T14:32:18.662Z,23.47
2018-04-07T14:34:46.434Z,21.43
2018-04-07T14:43:06.442Z,27.30
2018-04-07T14:45:49.326Z,25.17
2018-04-07T14:48:32.381Z,26.13
2018-04-07T14:51:16.155Z,25.03
2018-04-07T14:53:58.850Z,23.93
2018-04-07T14:56:42.181Z,22.33
2018-04-07T14:59:25.680Z,29.80
2018-04-07T15:02:09.007Z,26.07
2018-04-07T15:04:52.509Z,28.13
2018-04-07T15:07:35.998Z,31.00
2018-04-07T15:10:20.648Z,29.20
2018-04-07T15:13:04.368Z,27.40
2018-04-07T15:15:47.043Z,27.67
2018-04-07T15:18:31.756Z,26.60
2018-04-07T15:21:15.189Z,27.57
2018-04-07T15:23:58.078Z,25.27
2018-04-07T15:26:41.399Z,27.20
2018-04-07T15:29:24.403Z,24.13
2018-04-07T15:32:08.938Z,24.73
2018-04-07T15:34:51.784Z,24.47
2018-04-07T15:37:35.250Z,24.20
2018-04-07T15:40:18.413Z,29.17
2018-04-07T15:43:01.665Z,27.93
2018-04-07T15:45:44.767Z,29.97
2018-04-07T15:48:27.409Z,30.03
2018-04-07T15:51:10.260Z,28.33
2018-04-07T15:53:54.665Z,32.87
2018-04-07T15:56:37.359Z,31.87
2018-04-07T15:59:20.500Z,44.67
2018-04-07T16:02:04.878Z,38.47
2018-04-07T16:04:47.759Z,31.83
2018-04-07T16:07:30.298Z,35.40
2018-04-07T16:10:14.625Z,33.90
2018-04-07T16:12:57.248Z,31.57
2018-04-07T16:15:40.825Z,31.20
2018-04-07T16:18:24.618Z,28.20
2018-04-07T16:21:07.742Z,31.20
2018-04-07T16:23:51.332Z,30.73
2018-04-07T16:26:34.356Z,28.00
2018-04-07T16:29:18.451Z,26.70
2018-04-07T16:33:44.368Z,23.50
2018-04-07T16:36:12.231Z,24.07
2018-04-07T16:38:41.297Z,22.27
2018-04-07T16:41:09.289Z,21.10
2018-04-07T16:43:37.780Z,20.73
2018-04-07T16:46:05.579Z,19.50
2018-04-07T16:48:33.852Z,18.97
2018-04-07T16:51:02.156Z,17.60
2018-04-07T16:53:30.168Z,17.90
2018-04-07T16:55:58.352Z,16.67
2018-04-07T16:58:27.333Z,15.90
2018-04-07T17:00:56.316Z,16.70
2018-04-07T17:03:25.601Z,16.57
2018-04-07T17:05:54.030Z,16.50
2018-04-07T17:08:22.453Z,15.60
2018-04-07T17:10:51.073Z,14.80
2018-04-07T17:13:19.464Z,14.40
2018-04-07T17:15:48.545Z,14.27
2018-04-07T17:18:18.201Z,13.90
2018-04-07T17:20:46.256Z,12.50
2018-04-07T17:23:14.811Z,13.40
2018-04-07T17:25:43.917Z,14.17
2018-04-07T17:28:13.015Z,14.70
2018-04-07T17:30:42.406Z,14.90
2018-04-07T17:33:10.792Z,16.30
2018-04-07T17:35:39.941Z,16.30
2018-04-07T17:38:08.269Z,16.80
2018-04-07T17:40:36.731Z,17.77
2018-04-07T17:43:05.865Z,18.40
2018-04-07T17:45:35.211Z,18.67
2018-04-07T17:48:03.939Z,17.30
2018-04-07T17:50:32.427Z,17.60
2018-04-07T17:53:01.722Z,17.13
2018-04-07T17:55:30.138Z,15.70
2018-04-07T17:57:58.471Z,17.20
2018-04-07T18:00:26.895Z,15.37
2018-04-07T18:02:55.339Z,15.67
2018-04-07T18:05:24.635Z,16.13
2018-04-07T18:07:53.729Z,16.77
2018-04-07T18:10:22.736Z,15.93
2018-04-07T18:12:51.335Z,14.67
2018-04-07T18:15:20.636Z,13.30
2018-04-07T18:17:48.972Z,13.73
2018-04-07T18:20:18.228Z,14.43
2018-04-07T18:22:46.968Z,14.17
2018-04-07T18:25:15.678Z,12.93
2018-04-07T18:27:44.565Z,13.00
2018-04-07T18:30:14.149Z,13.23
2018-04-07T18:32:43.312Z,11.80
2018-04-07T18:35:12.857Z,13.40
2018-04-07T18:37:42.102Z,11.30
2018-04-07T18:40:10.558Z,12.00
2018-04-07T18:42:38.801Z,11.97
2018-04-07T18:45:07.745Z,12.10
2018-04-07T18:47:36.711Z,11.30
2018-04-07T18:50:06.026Z,11.53
2018-04-07T18:52:34.806Z,14.13
2018-04-07T18:55:03.386Z,15.93
2018-04-07T18:57:32.666Z,17.37
2018-04-07T19:00:00.974Z,15.87
2018-04-07T19:02:29.497Z,16.30
2018-04-07T19:04:57.236Z,15.90
2018-04-07T19:07:26.610Z,18.00
2018-04-07T19:09:54.984Z,17.87
2018-04-07T19:12:23.251Z,18.47
2018-04-07T19:14:52.035Z,16.20
2018-04-07T19:17:20.312Z,17.00
2018-04-07T19:19:48.819Z,17.30
2018-04-07T19:22:17.259Z,717.70
2018-04-07T19:24:47.002Z,426.87
2018-04-07T19:27:16.285Z,328.77
2018-04-07T19:29:44.515Z,254.87
2018-04-07T19:32:12.952Z,168.23
2018-04-07T19:34:41.128Z,137.83
2018-04-07T19:37:09.288Z,125.33
2018-04-07T19:39:37.778Z,109.27
2018-04-07T19:42:06.801Z,107.70
2018-04-07T19:44:35.490Z,103.93
2018-04-07T19:47:03.926Z,97.10
2018-04-07T19:49:32.217Z,93.60
2018-04-07T19:52:01.507Z,83.03
2018-04-07T19:54:30.704Z,81.03
2018-04-07T19:56:59.304Z,73.37
2018-04-07T19:59:28.032Z,64.37
2018-04-07T20:01:57.377Z,58.57
2018-04-07T20:04:25.783Z,57.63
2018-04-07T20:06:54.247Z,57.93
2018-04-07T20:09:22.418Z,56.60
2018-04-07T20:11:50.711Z,50.80
2018-04-07T20:14:19.419Z,45.47
2018-04-07T20:16:47.999Z,42.63
2018-04-07T20:19:16.488Z,41.47
2018-04-07T20:21:45.113Z,40.00
2018-04-07T20:24:14.053Z,38.57
2018-04-07T20:26:42.542Z,37.27
2018-04-07T20:29:11.113Z,36.63
2018-04-07T20:31:39.695Z,35.00
2018-04-07T20:34:08.379Z,32.80
2018-04-07T20:36:36.857Z,32.40
2018-04-07T20:39:05.169Z,28.60
2018-04-07T20:41:33.787Z,28.10
2018-04-07T20:44:08.429Z,25.87
2018-04-07T20:46:37.114Z,22.67
2018-04-07T20:49:05.503Z,25.30
2018-04-07T20:51:34.030Z,24.63
2018-04-07T20:54:02.640Z,23.63
2018-04-07T20:56:31.331Z,21.67
2018-04-07T20:58:59.982Z,21.10
2018-04-07T21:01:28.603Z,18.87
2018-04-07T21:03:57.136Z,17.73
2018-04-07T21:06:25.681Z,18.53
2018-04-07T21:08:55.074Z,18.30
2018-04-07T21:11:23.794Z,17.90
2018-04-07T21:13:52.973Z,16.20
2018-04-07T21:16:21.246Z,15.20
2018-04-07T21:18:49.713Z,14.30
2018-04-07T21:21:18.133Z,14.90
2018-04-07T21:23:46.780Z,14.03
2018-04-07T21:26:15.477Z,12.93
2018-04-07T21:28:43.783Z,13.20
2018-04-07T21:31:12.024Z,13.80
2018-04-07T21:33:40.642Z,12.57
2018-04-07T21:36:10.097Z,11.77
2018-04-07T21:38:39.404Z,11.03
2018-04-07T21:41:08.024Z,11.43
2018-04-07T21:43:37.497Z,11.30
2018-04-07T21:46:05.855Z,11.30
2018-04-07T21:48:34.818Z,10.67
2018-04-07T21:51:03.806Z,10.43
2018-04-07T21:53:32.493Z,12.70
2018-04-07T21:56:01.166Z,13.83
2018-04-07T21:58:29.836Z,17.77
2018-04-07T22:00:58.290Z,14.17
2018-04-07T22:03:26.606Z,16.27
2018-04-07T22:05:55.504Z,13.80
2018-04-07T22:08:23.737Z,16.40
2018-04-07T22:10:52.813Z,16.40
2018-04-07T22:13:20.856Z,19.07
2018-04-07T22:15:49.912Z,19.63
2018-04-07T22:18:18.810Z,18.27
2018-04-07T22:20:46.987Z,16.30
2018-04-07T22:23:16.184Z,16.40
2018-04-07T22:25:45.029Z,17.27
2018-04-07T22:28:12.943Z,17.20
2018-04-07T22:30:41.119Z,16.77
2018-04-07T22:33:10.051Z,15.23
2018-04-07T22:35:38.558Z,15.50
2018-04-07T22:38:08.289Z,15.80
2018-04-07T22:40:36.457Z,14.90
2018-04-07T22:43:05.347Z,14.43
2018-04-07T22:45:34.233Z,14.17
2018-04-07T22:48:03.627Z,15.83
2018-04-07T22:50:33.155Z,13.80
2018-04-07T22:53:01.432Z,13.30
2018-04-07T22:55:30.109Z,12.70
2018-04-07T22:57:58.291Z,12.77
2018-04-07T23:00:26.744Z,12.67
2018-04-07T23:02:55.062Z,12.97
2018-04-07T23:05:23.782Z,13.00
2018-04-07T23:07:53.015Z,12.23
2018-04-07T23:10:21.405Z,12.60
2018-04-07T23:12:49.476Z,13.63
2018-04-07T23:15:17.687Z,14.27
2018-04-07T23:17:46.602Z,13.70
2018-04-07T23:20:15.725Z,12.70
2018-04-07T23:22:44.061Z,13.17
2018-04-07T23:25:12.494Z,13.47
2018-04-07T23:27:40.780Z,13.07
2018-04-07T23:30:10.578Z,12.60
2018-04-07T23:32:39.056Z,11.57
2018-04-07T23:35:07.598Z,12.70
2018-04-07T23:37:35.849Z,12.90
2018-04-07T23:40:04.701Z,12.50
2018-04-07T23:42:35.451Z,11.87
2018-04-07T23:45:03.825Z,12.07
2018-04-07T23:47:35.184Z,13.43
2018-04-07T23:50:03.904Z,13.10
2018-04-07T23:52:34.194Z,12.70
2018-04-07T23:55:02.996Z,12.37
2018-04-07T23:57:32.720Z,12.90
